sensor_id;sensor_type;location;lat;lon;timestamp;P1;durP1;ratioP1;P2;durP2;ratioP2
76540;SDS011;65385;55.772;37.658;2024-01-10T00:00:24;5.35;;;3.40;;
76540;SDS011;65385;55.772;37.658;2024-01-10T00:01:24;5.57;;;3.78;;
76540;SDS011;65385;55.772;37.658;2024-01-10T00:02:27;3.63;;;3.05;;
76540;SDS011;65385;55.772;37.658;2024-01-10T00:03:27;4.93;;;3.40;;
76540;SDS011;65385;55.772;37.658;2024-01-10T00:04:28;5.97;;;3.50;;
76540;SDS011;65385;55.772;37.658;2024-01-10T00:05:29;4.38;;;3.35;;
76540;SDS011;65385;55.772;37.658;2024-01-10T00:06:29;4.10;;;2.67;;
76540;SDS011;65385;55.772;37.658;2024-01-10T00:07:30;7.03;;;3.70;;
76540;SDS011;65385;55.772;37.658;2024-01-10T00:08:31;9.85;;;4.15;;
76540;SDS011;65385;55.772;37.658;2024-01-10T00:09:32;8.15;;;4.15;;
76540;SDS011;65385;55.772;37.658;2024-01-10T00:10:32;10.20;;;3.88;;
76540;SDS011;65385;55.772;37.658;2024-01-10T00:11:33;9.18;;;4.18;;
76540;SDS011;65385;55.772;37.658;2024-01-10T00:12:34;3.50;;;2.65;;
76540;SDS011;65385;55.772;37.658;2024-01-10T00:13:36;4.57;;;3.30;;
76540;SDS011;65385;55.772;37.658;2024-01-10T00:14:37;2.33;;;2.10;;
76540;SDS011;65385;55.772;37.658;2024-01-10T00:15:38;4.82;;;3.03;;
76540;SDS011;65385;55.772;37.658;2024-01-10T00:16:38;6.38;;;3.08;;
76540;SDS011;65385;55.772;37.658;2024-01-10T00:17:40;9.48;;;3.40;;
76540;SDS011;65385;55.772;37.658;2024-01-10T00:18:40;5.95;;;3.58;;
76540;SDS011;65385;55.772;37.658;2024-01-10T00:19:41;4.65;;;2.65;;
76540;SDS011;65385;55.772;37.658;2024-01-10T00:20:42;7.68;;;3.20;;
76540;SDS011;65385;55.772;37.658;2024-01-10T00:21:42;8.50;;;3.28;;
76540;SDS011;65385;55.772;37.658;2024-01-10T00:22:43;9.00;;;3.97;;
76540;SDS011;65385;55.772;37.658;2024-01-10T00:23:44;4.80;;;3.15;;
76540;SDS011;65385;55.772;37.658;2024-01-10T00:24:45;3.72;;;2.58;;
76540;SDS011;65385;55.772;37.658;2024-01-10T00:25:45;5.15;;;3.17;;
76540;SDS011;65385;55.772;37.658;2024-01-10T00:26:46;6.18;;;2.78;;
76540;SDS011;65385;55.772;37.658;2024-01-10T00:27:47;3.08;;;2.45;;
76540;SDS011;65385;55.772;37.658;2024-01-10T00:28:48;5.80;;;3.20;;
76540;SDS011;65385;55.772;37.658;2024-01-10T00:29:48;4.65;;;3.03;;
76540;SDS011;65385;55.772;37.658;2024-01-10T00:30:51;2.63;;;2.28;;
76540;SDS011;65385;55.772;37.658;2024-01-10T00:31:52;5.78;;;2.65;;
76540;SDS011;65385;55.772;37.658;2024-01-10T00:32:53;4.57;;;2.88;;
76540;SDS011;65385;55.772;37.658;2024-01-10T00:33:54;2.72;;;2.50;;
76540;SDS011;65385;55.772;37.658;2024-01-10T00:34:54;1.88;;;1.77;;
76540;SDS011;65385;55.772;37.658;2024-01-10T00:35:55;4.55;;;2.88;;
76540;SDS011;65385;55.772;37.658;2024-01-10T00:36:55;2.85;;;2.65;;
76540;SDS011;65385;55.772;37.658;2024-01-10T00:37:56;2.90;;;2.50;;
76540;SDS011;65385;55.772;37.658;2024-01-10T00:38:57;3.40;;;2.28;;
76540;SDS011;65385;55.772;37.658;2024-01-10T00:39:57;1.95;;;1.95;;
76540;SDS011;65385;55.772;37.658;2024-01-10T00:40:58;2.88;;;2.15;;
76540;SDS011;65385;55.772;37.658;2024-01-10T00:41:59;3.30;;;2.20;;
76540;SDS011;65385;55.772;37.658;2024-01-10T00:42:59;3.67;;;2.17;;
76540;SDS011;65385;55.772;37.658;2024-01-10T00:44:00;4.65;;;2.45;;
76540;SDS011;65385;55.772;37.658;2024-01-10T00:45:00;2.50;;;2.30;;
76540;SDS011;65385;55.772;37.658;2024-01-10T00:46:01;2.65;;;1.98;;
76540;SDS011;65385;55.772;37.658;2024-01-10T00:47:02;2.35;;;2.15;;
76540;SDS011;65385;55.772;37.658;2024-01-10T00:48:02;2.92;;;2.03;;
76540;SDS011;65385;55.772;37.658;2024-01-10T00:49:03;1.73;;;1.63;;
76540;SDS011;65385;55.772;37.658;2024-01-10T00:50:04;2.42;;;2.15;;
76540;SDS011;65385;55.772;37.658;2024-01-10T00:51:05;1.33;;;1.23;;
76540;SDS011;65385;55.772;37.658;2024-01-10T00:52:08;1.45;;;1.45;;
76540;SDS011;65385;55.772;37.658;2024-01-10T00:53:09;1.60;;;1.60;;
76540;SDS011;65385;55.772;37.658;2024-01-10T00:54:10;2.42;;;2.33;;
76540;SDS011;65385;55.772;37.658;2024-01-10T00:55:10;1.75;;;1.58;;
76540;SDS011;65385;55.772;37.658;2024-01-10T00:56:11;2.13;;;1.95;;
76540;SDS011;65385;55.772;37.658;2024-01-10T00:57:12;2.15;;;1.73;;
76540;SDS011;65385;55.772;37.658;2024-01-10T00:58:12;1.73;;;1.63;;
76540;SDS011;65385;55.772;37.658;2024-01-10T00:59:13;1.58;;;1.48;;
76540;SDS011;65385;55.772;37.658;2024-01-10T01:00:14;1.50;;;1.40;;
76540;SDS011;65385;55.772;37.658;2024-01-10T01:01:15;1.55;;;1.45;;
76540;SDS011;65385;55.772;37.658;2024-01-10T01:02:15;2.33;;;2.20;;
76540;SDS011;65385;55.772;37.658;2024-01-10T01:03:16;1.85;;;1.75;;
76540;SDS011;65385;55.772;37.658;2024-01-10T01:04:17;1.92;;;1.83;;
76540;SDS011;65385;55.772;37.658;2024-01-10T01:05:17;2.25;;;2.13;;
76540;SDS011;65385;55.772;37.658;2024-01-10T01:06:18;2.00;;;1.90;;
76540;SDS011;65385;55.772;37.658;2024-01-10T01:07:19;2.28;;;2.08;;
76540;SDS011;65385;55.772;37.658;2024-01-10T01:08:19;2.42;;;2.22;;
76540;SDS011;65385;55.772;37.658;2024-01-10T01:09:20;3.45;;;2.30;;
76540;SDS011;65385;55.772;37.658;2024-01-10T01:10:20;1.90;;;1.75;;
76540;SDS011;65385;55.772;37.658;2024-01-10T01:11:21;2.22;;;2.13;;
76540;SDS011;65385;55.772;37.658;2024-01-10T01:12:21;3.25;;;2.30;;
76540;SDS011;65385;55.772;37.658;2024-01-10T01:13:22;2.08;;;1.98;;
76540;SDS011;65385;55.772;37.658;2024-01-10T01:14:23;2.20;;;2.10;;
76540;SDS011;65385;55.772;37.658;2024-01-10T01:15:23;1.73;;;1.65;;
76540;SDS011;65385;55.772;37.658;2024-01-10T01:16:24;2.47;;;2.10;;
76540;SDS011;65385;55.772;37.658;2024-01-10T01:17:25;1.95;;;1.85;;
76540;SDS011;65385;55.772;37.658;2024-01-10T01:18:25;2.03;;;1.92;;
76540;SDS011;65385;55.772;37.658;2024-01-10T01:19:26;3.20;;;2.00;;
76540;SDS011;65385;55.772;37.658;2024-01-10T01:20:26;1.80;;;1.67;;
76540;SDS011;65385;55.772;37.658;2024-01-10T01:21:27;2.42;;;2.25;;
76540;SDS011;65385;55.772;37.658;2024-01-10T01:22:27;2.72;;;2.13;;
76540;SDS011;65385;55.772;37.658;2024-01-10T01:23:28;2.05;;;1.85;;
76540;SDS011;65385;55.772;37.658;2024-01-10T01:24:29;1.70;;;1.60;;
76540;SDS011;65385;55.772;37.658;2024-01-10T01:25:29;2.33;;;2.20;;
76540;SDS011;65385;55.772;37.658;2024-01-10T01:26:30;4.70;;;2.42;;
76540;SDS011;65385;55.772;37.658;2024-01-10T01:27:30;1.98;;;1.80;;
76540;SDS011;65385;55.772;37.658;2024-01-10T01:28:31;2.47;;;1.92;;
76540;SDS011;65385;55.772;37.658;2024-01-10T01:29:32;2.33;;;2.10;;
76540;SDS011;65385;55.772;37.658;2024-01-10T01:30:33;2.03;;;1.83;;
76540;SDS011;65385;55.772;37.658;2024-01-10T01:31:33;2.55;;;1.92;;
76540;SDS011;65385;55.772;37.658;2024-01-10T01:32:34;2.42;;;2.15;;
76540;SDS011;65385;55.772;37.658;2024-01-10T01:33:35;1.73;;;1.63;;
76540;SDS011;65385;55.772;37.658;2024-01-10T01:34:36;2.30;;;2.10;;
76540;SDS011;65385;55.772;37.658;2024-01-10T01:35:36;2.42;;;2.03;;
76540;SDS011;65385;55.772;37.658;2024-01-10T01:36:37;1.63;;;1.55;;
76540;SDS011;65385;55.772;37.658;2024-01-10T01:37:37;3.13;;;2.35;;
76540;SDS011;65385;55.772;37.658;2024-01-10T01:38:38;1.83;;;1.73;;
76540;SDS011;65385;55.772;37.658;2024-01-10T01:39:39;1.80;;;1.70;;
76540;SDS011;65385;55.772;37.658;2024-01-10T01:40:39;2.10;;;1.88;;
76540;SDS011;65385;55.772;37.658;2024-01-10T01:41:40;1.77;;;1.65;;
76540;SDS011;65385;55.772;37.658;2024-01-10T01:42:40;4.47;;;2.67;;
76540;SDS011;65385;55.772;37.658;2024-01-10T01:43:42;1.85;;;1.75;;
76540;SDS011;65385;55.772;37.658;2024-01-10T01:44:43;2.40;;;2.17;;
76540;SDS011;65385;55.772;37.658;2024-01-10T01:45:43;2.10;;;2.00;;
76540;SDS011;65385;55.772;37.658;2024-01-10T01:46:44;2.97;;;1.70;;
76540;SDS011;65385;55.772;37.658;2024-01-10T01:47:46;1.77;;;1.67;;
76540;SDS011;65385;55.772;37.658;2024-01-10T01:48:47;2.17;;;1.95;;
76540;SDS011;65385;55.772;37.658;2024-01-10T01:49:49;5.15;;;2.65;;
76540;SDS011;65385;55.772;37.658;2024-01-10T01:50:52;2.90;;;2.63;;
76540;SDS011;65385;55.772;37.658;2024-01-10T01:51:55;4.20;;;3.08;;
76540;SDS011;65385;55.772;37.658;2024-01-10T01:52:56;2.33;;;2.13;;
76540;SDS011;65385;55.772;37.658;2024-01-10T01:53:56;5.47;;;2.15;;
76540;SDS011;65385;55.772;37.658;2024-01-10T01:54:57;6.53;;;2.10;;
76540;SDS011;65385;55.772;37.658;2024-01-10T01:55:59;2.80;;;2.42;;
76540;SDS011;65385;55.772;37.658;2024-01-10T01:57:03;6.40;;;3.15;;
76540;SDS011;65385;55.772;37.658;2024-01-10T01:58:05;2.50;;;2.30;;
76540;SDS011;65385;55.772;37.658;2024-01-10T01:59:05;7.20;;;3.22;;
76540;SDS011;65385;55.772;37.658;2024-01-10T02:00:06;4.72;;;3.08;;
76540;SDS011;65385;55.772;37.658;2024-01-10T02:01:09;3.47;;;2.53;;
76540;SDS011;65385;55.772;37.658;2024-01-10T02:02:11;3.63;;;2.40;;
76540;SDS011;65385;55.772;37.658;2024-01-10T02:03:13;4.35;;;2.53;;
76540;SDS011;65385;55.772;37.658;2024-01-10T02:04:14;3.88;;;1.85;;
76540;SDS011;65385;55.772;37.658;2024-01-10T02:05:15;2.00;;;1.90;;
76540;SDS011;65385;55.772;37.658;2024-01-10T02:06:16;3.88;;;2.40;;
76540;SDS011;65385;55.772;37.658;2024-01-10T02:07:16;2.50;;;2.28;;
76540;SDS011;65385;55.772;37.658;2024-01-10T02:08:17;3.53;;;2.28;;
76540;SDS011;65385;55.772;37.658;2024-01-10T02:09:18;4.78;;;2.38;;
76540;SDS011;65385;55.772;37.658;2024-01-10T02:10:19;3.50;;;2.33;;
76540;SDS011;65385;55.772;37.658;2024-01-10T02:11:19;2.20;;;2.00;;
76540;SDS011;65385;55.772;37.658;2024-01-10T02:12:21;6.07;;;2.05;;
76540;SDS011;65385;55.772;37.658;2024-01-10T02:13:22;2.75;;;2.55;;
76540;SDS011;65385;55.772;37.658;2024-01-10T02:14:23;2.60;;;2.40;;
76540;SDS011;65385;55.772;37.658;2024-01-10T02:15:23;2.30;;;2.10;;
76540;SDS011;65385;55.772;37.658;2024-01-10T02:16:44;1.92;;;1.83;;
76540;SDS011;65385;55.772;37.658;2024-01-10T02:17:45;2.88;;;2.17;;
76540;SDS011;65385;55.772;37.658;2024-01-10T02:18:45;4.50;;;2.83;;
76540;SDS011;65385;55.772;37.658;2024-01-10T02:19:46;5.25;;;2.53;;
76540;SDS011;65385;55.772;37.658;2024-01-10T02:20:47;2.20;;;1.98;;
76540;SDS011;65385;55.772;37.658;2024-01-10T02:21:48;3.08;;;2.20;;
76540;SDS011;65385;55.772;37.658;2024-01-10T02:22:48;2.17;;;2.08;;
76540;SDS011;65385;55.772;37.658;2024-01-10T02:23:50;2.33;;;2.15;;
76540;SDS011;65385;55.772;37.658;2024-01-10T02:24:53;2.40;;;2.15;;
76540;SDS011;65385;55.772;37.658;2024-01-10T02:25:54;5.28;;;2.60;;
76540;SDS011;65385;55.772;37.658;2024-01-10T02:26:55;3.00;;;2.75;;
76540;SDS011;65385;55.772;37.658;2024-01-10T02:27:56;4.72;;;3.08;;
76540;SDS011;65385;55.772;37.658;2024-01-10T02:28:57;5.78;;;2.00;;
76540;SDS011;65385;55.772;37.658;2024-01-10T02:29:57;2.80;;;1.80;;
76540;SDS011;65385;55.772;37.658;2024-01-10T02:30:59;1.75;;;1.65;;
76540;SDS011;65385;55.772;37.658;2024-01-10T02:32:00;5.30;;;2.47;;
76540;SDS011;65385;55.772;37.658;2024-01-10T02:33:01;4.38;;;2.08;;
76540;SDS011;65385;55.772;37.658;2024-01-10T02:34:02;2.80;;;2.33;;
76540;SDS011;65385;55.772;37.658;2024-01-10T02:35:02;2.60;;;1.58;;
76540;SDS011;65385;55.772;37.658;2024-01-10T02:36:04;1.85;;;1.75;;
76540;SDS011;65385;55.772;37.658;2024-01-10T02:37:05;2.20;;;1.85;;
76540;SDS011;65385;55.772;37.658;2024-01-10T02:38:05;2.30;;;1.83;;
76540;SDS011;65385;55.772;37.658;2024-01-10T02:39:06;2.95;;;2.75;;
76540;SDS011;65385;55.772;37.658;2024-01-10T02:40:07;2.15;;;1.77;;
76540;SDS011;65385;55.772;37.658;2024-01-10T02:41:08;1.95;;;1.63;;
76540;SDS011;65385;55.772;37.658;2024-01-10T02:42:08;6.60;;;2.63;;
76540;SDS011;65385;55.772;37.658;2024-01-10T02:43:09;2.13;;;2.03;;
76540;SDS011;65385;55.772;37.658;2024-01-10T02:44:10;3.00;;;1.83;;
76540;SDS011;65385;55.772;37.658;2024-01-10T02:45:10;3.92;;;2.40;;
76540;SDS011;65385;55.772;37.658;2024-01-10T02:46:11;9.38;;;4.35;;
76540;SDS011;65385;55.772;37.658;2024-01-10T02:47:11;4.68;;;3.42;;
76540;SDS011;65385;55.772;37.658;2024-01-10T02:48:13;6.45;;;4.22;;
76540;SDS011;65385;55.772;37.658;2024-01-10T02:49:13;4.60;;;3.85;;
76540;SDS011;65385;55.772;37.658;2024-01-10T02:50:14;5.57;;;3.03;;
76540;SDS011;65385;55.772;37.658;2024-01-10T02:51:15;2.17;;;2.00;;
76540;SDS011;65385;55.772;37.658;2024-01-10T02:52:16;2.67;;;2.08;;
76540;SDS011;65385;55.772;37.658;2024-01-10T02:53:16;2.50;;;1.98;;
76540;SDS011;65385;55.772;37.658;2024-01-10T02:54:17;4.55;;;2.70;;
76540;SDS011;65385;55.772;37.658;2024-01-10T02:55:17;3.80;;;2.78;;
76540;SDS011;65385;55.772;37.658;2024-01-10T02:56:18;5.70;;;2.28;;
76540;SDS011;65385;55.772;37.658;2024-01-10T02:57:19;5.13;;;2.70;;
76540;SDS011;65385;55.772;37.658;2024-01-10T02:58:19;4.45;;;2.72;;
76540;SDS011;65385;55.772;37.658;2024-01-10T02:59:21;3.53;;;2.60;;
76540;SDS011;65385;55.772;37.658;2024-01-10T03:00:22;3.20;;;2.90;;
76540;SDS011;65385;55.772;37.658;2024-01-10T03:01:22;2.65;;;2.47;;
76540;SDS011;65385;55.772;37.658;2024-01-10T03:02:23;5.25;;;2.78;;
76540;SDS011;65385;55.772;37.658;2024-01-10T03:03:24;2.92;;;2.35;;
76540;SDS011;65385;55.772;37.658;2024-01-10T03:04:24;2.55;;;1.98;;
76540;SDS011;65385;55.772;37.658;2024-01-10T03:05:25;2.38;;;1.88;;
76540;SDS011;65385;55.772;37.658;2024-01-10T03:06:26;2.33;;;2.13;;
76540;SDS011;65385;55.772;37.658;2024-01-10T03:07:26;1.80;;;1.70;;
76540;SDS011;65385;55.772;37.658;2024-01-10T03:08:27;2.50;;;2.30;;
76540;SDS011;65385;55.772;37.658;2024-01-10T03:09:28;3.30;;;3.00;;
76540;SDS011;65385;55.772;37.658;2024-01-10T03:10:28;3.22;;;2.95;;
76540;SDS011;65385;55.772;37.658;2024-01-10T03:11:29;2.08;;;1.90;;
76540;SDS011;65385;55.772;37.658;2024-01-10T03:12:31;2.83;;;2.45;;
76540;SDS011;65385;55.772;37.658;2024-01-10T03:13:31;3.65;;;2.42;;
76540;SDS011;65385;55.772;37.658;2024-01-10T03:14:32;2.95;;;2.63;;
76540;SDS011;65385;55.772;37.658;2024-01-10T03:15:34;3.15;;;2.30;;
76540;SDS011;65385;55.772;37.658;2024-01-10T03:16:35;1.80;;;1.70;;
76540;SDS011;65385;55.772;37.658;2024-01-10T03:17:36;1.70;;;1.60;;
76540;SDS011;65385;55.772;37.658;2024-01-10T03:18:36;1.90;;;1.80;;
76540;SDS011;65385;55.772;37.658;2024-01-10T03:19:37;2.53;;;1.90;;
76540;SDS011;65385;55.772;37.658;2024-01-10T03:20:42;2.17;;;2.08;;
76540;SDS011;65385;55.772;37.658;2024-01-10T03:21:43;2.45;;;2.17;;
76540;SDS011;65385;55.772;37.658;2024-01-10T03:22:44;2.58;;;2.20;;
76540;SDS011;65385;55.772;37.658;2024-01-10T03:23:44;3.85;;;2.60;;
76540;SDS011;65385;55.772;37.658;2024-01-10T03:24:45;2.38;;;2.28;;
76540;SDS011;65385;55.772;37.658;2024-01-10T03:25:45;2.30;;;2.20;;
76540;SDS011;65385;55.772;37.658;2024-01-10T03:26:47;2.83;;;2.40;;
76540;SDS011;65385;55.772;37.658;2024-01-10T03:27:48;3.28;;;2.55;;
76540;SDS011;65385;55.772;37.658;2024-01-10T03:28:48;2.33;;;2.15;;
76540;SDS011;65385;55.772;37.658;2024-01-10T03:29:49;3.72;;;3.05;;
76540;SDS011;65385;55.772;37.658;2024-01-10T03:30:50;2.30;;;2.13;;
76540;SDS011;65385;55.772;37.658;2024-01-10T03:31:51;3.42;;;3.00;;
76540;SDS011;65385;55.772;37.658;2024-01-10T03:32:52;4.22;;;2.72;;
76540;SDS011;65385;55.772;37.658;2024-01-10T03:33:52;3.13;;;2.60;;
76540;SDS011;65385;55.772;37.658;2024-01-10T03:34:53;4.28;;;3.45;;
76540;SDS011;65385;55.772;37.658;2024-01-10T03:35:54;2.58;;;2.17;;
76540;SDS011;65385;55.772;37.658;2024-01-10T03:36:55;3.63;;;2.97;;
76540;SDS011;65385;55.772;37.658;2024-01-10T03:37:56;5.45;;;3.03;;
76540;SDS011;65385;55.772;37.658;2024-01-10T03:38:56;4.25;;;3.45;;
76540;SDS011;65385;55.772;37.658;2024-01-10T03:39:57;6.28;;;4.13;;
76540;SDS011;65385;55.772;37.658;2024-01-10T03:40:59;7.03;;;3.70;;
76540;SDS011;65385;55.772;37.658;2024-01-10T03:42:00;5.80;;;2.72;;
76540;SDS011;65385;55.772;37.658;2024-01-10T03:43:00;7.60;;;4.57;;
76540;SDS011;65385;55.772;37.658;2024-01-10T03:44:01;3.28;;;3.03;;
76540;SDS011;65385;55.772;37.658;2024-01-10T03:45:02;9.18;;;4.40;;
76540;SDS011;65385;55.772;37.658;2024-01-10T03:46:04;5.32;;;3.67;;
76540;SDS011;65385;55.772;37.658;2024-01-10T03:47:06;6.07;;;4.22;;
76540;SDS011;65385;55.772;37.658;2024-01-10T03:48:06;4.75;;;3.75;;
76540;SDS011;65385;55.772;37.658;2024-01-10T03:49:07;5.72;;;4.20;;
76540;SDS011;65385;55.772;37.658;2024-01-10T03:50:08;10.00;;;5.35;;
76540;SDS011;65385;55.772;37.658;2024-01-10T03:51:09;11.10;;;5.50;;
76540;SDS011;65385;55.772;37.658;2024-01-10T03:52:09;3.40;;;3.10;;
76540;SDS011;65385;55.772;37.658;2024-01-10T03:53:10;6.90;;;4.38;;
76540;SDS011;65385;55.772;37.658;2024-01-10T03:54:10;7.00;;;4.20;;
76540;SDS011;65385;55.772;37.658;2024-01-10T03:55:11;7.45;;;4.78;;
76540;SDS011;65385;55.772;37.658;2024-01-10T03:56:13;6.40;;;4.32;;
76540;SDS011;65385;55.772;37.658;2024-01-10T03:57:13;6.88;;;4.28;;
76540;SDS011;65385;55.772;37.658;2024-01-10T03:58:14;14.88;;;7.25;;
76540;SDS011;65385;55.772;37.658;2024-01-10T03:59:15;8.98;;;5.38;;
76540;SDS011;65385;55.772;37.658;2024-01-10T04:00:15;6.57;;;3.60;;
76540;SDS011;65385;55.772;37.658;2024-01-10T04:01:17;6.47;;;3.92;;
76540;SDS011;65385;55.772;37.658;2024-01-10T04:02:22;8.02;;;4.78;;
76540;SDS011;65385;55.772;37.658;2024-01-10T04:03:23;13.75;;;5.38;;
76540;SDS011;65385;55.772;37.658;2024-01-10T04:04:23;6.72;;;4.72;;
76540;SDS011;65385;55.772;37.658;2024-01-10T04:05:24;6.22;;;3.95;;
76540;SDS011;65385;55.772;37.658;2024-01-10T04:06:25;6.15;;;3.50;;
76540;SDS011;65385;55.772;37.658;2024-01-10T04:07:28;5.60;;;4.43;;
76540;SDS011;65385;55.772;37.658;2024-01-10T04:08:28;4.40;;;3.60;;
76540;SDS011;65385;55.772;37.658;2024-01-10T04:09:29;10.52;;;5.15;;
76540;SDS011;65385;55.772;37.658;2024-01-10T04:10:30;11.27;;;5.03;;
76540;SDS011;65385;55.772;37.658;2024-01-10T04:11:30;7.05;;;3.38;;
76540;SDS011;65385;55.772;37.658;2024-01-10T04:12:31;5.55;;;3.03;;
76540;SDS011;65385;55.772;37.658;2024-01-10T04:13:32;6.53;;;4.63;;
76540;SDS011;65385;55.772;37.658;2024-01-10T04:14:32;5.15;;;3.47;;
76540;SDS011;65385;55.772;37.658;2024-01-10T04:15:33;6.95;;;4.57;;
76540;SDS011;65385;55.772;37.658;2024-01-10T04:16:34;5.88;;;3.97;;
76540;SDS011;65385;55.772;37.658;2024-01-10T04:17:35;3.28;;;2.97;;
76540;SDS011;65385;55.772;37.658;2024-01-10T04:18:36;13.13;;;6.18;;
76540;SDS011;65385;55.772;37.658;2024-01-10T04:19:36;9.93;;;5.72;;
76540;SDS011;65385;55.772;37.658;2024-01-10T04:20:37;11.32;;;6.05;;
76540;SDS011;65385;55.772;37.658;2024-01-10T04:21:39;8.40;;;4.43;;
76540;SDS011;65385;55.772;37.658;2024-01-10T04:22:39;12.32;;;5.82;;
76540;SDS011;65385;55.772;37.658;2024-01-10T04:23:40;7.00;;;4.28;;
76540;SDS011;65385;55.772;37.658;2024-01-10T04:24:41;7.88;;;4.88;;
76540;SDS011;65385;55.772;37.658;2024-01-10T04:25:41;9.32;;;5.53;;
76540;SDS011;65385;55.772;37.658;2024-01-10T04:26:42;13.05;;;6.72;;
76540;SDS011;65385;55.772;37.658;2024-01-10T04:27:43;8.63;;;4.97;;
76540;SDS011;65385;55.772;37.658;2024-01-10T04:28:43;10.55;;;6.30;;
76540;SDS011;65385;55.772;37.658;2024-01-10T04:29:44;10.80;;;4.95;;
76540;SDS011;65385;55.772;37.658;2024-01-10T04:30:45;6.53;;;4.32;;
76540;SDS011;65385;55.772;37.658;2024-01-10T04:31:45;14.10;;;6.03;;
76540;SDS011;65385;55.772;37.658;2024-01-10T04:32:46;9.50;;;6.22;;
76540;SDS011;65385;55.772;37.658;2024-01-10T04:33:47;13.75;;;6.28;;
76540;SDS011;65385;55.772;37.658;2024-01-10T04:34:47;11.30;;;6.85;;
76540;SDS011;65385;55.772;37.658;2024-01-10T04:35:48;10.65;;;5.93;;
76540;SDS011;65385;55.772;37.658;2024-01-10T04:36:48;11.98;;;5.45;;
76540;SDS011;65385;55.772;37.658;2024-01-10T04:37:49;13.85;;;6.22;;
76540;SDS011;65385;55.772;37.658;2024-01-10T04:38:50;11.40;;;6.53;;
76540;SDS011;65385;55.772;37.658;2024-01-10T04:39:50;10.15;;;4.70;;
76540;SDS011;65385;55.772;37.658;2024-01-10T04:40:51;8.75;;;5.05;;
76540;SDS011;65385;55.772;37.658;2024-01-10T04:41:52;10.32;;;6.47;;
76540;SDS011;65385;55.772;37.658;2024-01-10T04:42:53;10.90;;;5.28;;
76540;SDS011;65385;55.772;37.658;2024-01-10T04:43:54;13.32;;;6.78;;
76540;SDS011;65385;55.772;37.658;2024-01-10T04:44:54;14.15;;;7.03;;
76540;SDS011;65385;55.772;37.658;2024-01-10T04:45:55;10.45;;;5.72;;
76540;SDS011;65385;55.772;37.658;2024-01-10T04:46:55;9.15;;;4.45;;
76540;SDS011;65385;55.772;37.658;2024-01-10T04:47:57;6.43;;;4.35;;
76540;SDS011;65385;55.772;37.658;2024-01-10T04:48:57;7.75;;;5.50;;
76540;SDS011;65385;55.772;37.658;2024-01-10T04:49:58;5.97;;;4.32;;
76540;SDS011;65385;55.772;37.658;2024-01-10T04:50:59;6.55;;;5.15;;
76540;SDS011;65385;55.772;37.658;2024-01-10T04:52:00;9.77;;;5.45;;
76540;SDS011;65385;55.772;37.658;2024-01-10T04:53:01;7.53;;;4.10;;
76540;SDS011;65385;55.772;37.658;2024-01-10T04:54:01;5.15;;;4.13;;
76540;SDS011;65385;55.772;37.658;2024-01-10T04:55:02;6.50;;;5.53;;
76540;SDS011;65385;55.772;37.658;2024-01-10T04:56:06;9.32;;;4.72;;
76540;SDS011;65385;55.772;37.658;2024-01-10T04:57:06;8.23;;;4.95;;
76540;SDS011;65385;55.772;37.658;2024-01-10T04:58:08;7.15;;;4.65;;
76540;SDS011;65385;55.772;37.658;2024-01-10T04:59:08;10.40;;;6.22;;
76540;SDS011;65385;55.772;37.658;2024-01-10T05:00:09;10.75;;;5.28;;
76540;SDS011;65385;55.772;37.658;2024-01-10T05:01:10;4.50;;;3.90;;
76540;SDS011;65385;55.772;37.658;2024-01-10T05:02:11;7.57;;;4.32;;
76540;SDS011;65385;55.772;37.658;2024-01-10T05:03:11;11.50;;;5.55;;
76540;SDS011;65385;55.772;37.658;2024-01-10T05:04:12;8.07;;;5.47;;
76540;SDS011;65385;55.772;37.658;2024-01-10T05:05:12;10.57;;;5.65;;
76540;SDS011;65385;55.772;37.658;2024-01-10T05:06:13;10.57;;;5.60;;
76540;SDS011;65385;55.772;37.658;2024-01-10T05:07:14;7.68;;;4.32;;
76540;SDS011;65385;55.772;37.658;2024-01-10T05:08:15;5.63;;;4.28;;
76540;SDS011;65385;55.772;37.658;2024-01-10T05:09:16;9.45;;;6.43;;
76540;SDS011;65385;55.772;37.658;2024-01-10T05:10:17;7.82;;;4.60;;
76540;SDS011;65385;55.772;37.658;2024-01-10T05:11:18;13.95;;;7.15;;
76540;SDS011;65385;55.772;37.658;2024-01-10T05:12:19;9.95;;;6.20;;
76540;SDS011;65385;55.772;37.658;2024-01-10T05:13:19;8.45;;;5.50;;
76540;SDS011;65385;55.772;37.658;2024-01-10T05:14:20;11.43;;;5.65;;
76540;SDS011;65385;55.772;37.658;2024-01-10T05:15:21;10.20;;;4.78;;
76540;SDS011;65385;55.772;37.658;2024-01-10T05:16:22;12.02;;;4.53;;
76540;SDS011;65385;55.772;37.658;2024-01-10T05:17:23;7.03;;;4.70;;
76540;SDS011;65385;55.772;37.658;2024-01-10T05:18:23;6.57;;;5.45;;
76540;SDS011;65385;55.772;37.658;2024-01-10T05:19:24;6.07;;;3.97;;
76540;SDS011;65385;55.772;37.658;2024-01-10T05:20:24;5.95;;;4.43;;
76540;SDS011;65385;55.772;37.658;2024-01-10T05:21:25;8.90;;;5.43;;
76540;SDS011;65385;55.772;37.658;2024-01-10T05:22:27;10.43;;;6.13;;
76540;SDS011;65385;55.772;37.658;2024-01-10T05:23:27;6.32;;;4.55;;
76540;SDS011;65385;55.772;37.658;2024-01-10T05:24:28;4.47;;;4.03;;
76540;SDS011;65385;55.772;37.658;2024-01-10T05:25:29;8.75;;;5.30;;
76540;SDS011;65385;55.772;37.658;2024-01-10T05:26:30;14.27;;;6.45;;
76540;SDS011;65385;55.772;37.658;2024-01-10T05:27:30;11.73;;;5.97;;
76540;SDS011;65385;55.772;37.658;2024-01-10T05:28:31;12.25;;;6.57;;
76540;SDS011;65385;55.772;37.658;2024-01-10T05:29:31;12.90;;;7.28;;
76540;SDS011;65385;55.772;37.658;2024-01-10T05:30:32;11.07;;;5.43;;
76540;SDS011;65385;55.772;37.658;2024-01-10T05:31:33;5.80;;;3.75;;
76540;SDS011;65385;55.772;37.658;2024-01-10T05:32:33;5.03;;;4.28;;
76540;SDS011;65385;55.772;37.658;2024-01-10T05:33:34;4.88;;;3.47;;
76540;SDS011;65385;55.772;37.658;2024-01-10T05:34:35;5.15;;;3.85;;
76540;SDS011;65385;55.772;37.658;2024-01-10T05:35:35;10.52;;;6.28;;
76540;SDS011;65385;55.772;37.658;2024-01-10T05:36:36;8.23;;;5.15;;
76540;SDS011;65385;55.772;37.658;2024-01-10T05:37:36;5.45;;;3.95;;
76540;SDS011;65385;55.772;37.658;2024-01-10T05:38:37;13.10;;;6.55;;
76540;SDS011;65385;55.772;37.658;2024-01-10T05:39:38;5.93;;;4.47;;
76540;SDS011;65385;55.772;37.658;2024-01-10T05:40:39;8.75;;;5.07;;
76540;SDS011;65385;55.772;37.658;2024-01-10T05:41:40;10.18;;;5.60;;
76540;SDS011;65385;55.772;37.658;2024-01-10T05:42:41;7.50;;;4.82;;
76540;SDS011;65385;55.772;37.658;2024-01-10T05:43:41;15.32;;;6.88;;
76540;SDS011;65385;55.772;37.658;2024-01-10T05:44:44;9.15;;;5.72;;
76540;SDS011;65385;55.772;37.658;2024-01-10T05:45:45;7.13;;;4.70;;
76540;SDS011;65385;55.772;37.658;2024-01-10T05:46:45;7.60;;;5.47;;
76540;SDS011;65385;55.772;37.658;2024-01-10T05:47:47;8.30;;;4.07;;
76540;SDS011;65385;55.772;37.658;2024-01-10T05:48:48;6.15;;;4.05;;
76540;SDS011;65385;55.772;37.658;2024-01-10T05:49:49;7.68;;;4.88;;
76540;SDS011;65385;55.772;37.658;2024-01-10T05:50:50;6.05;;;4.25;;
76540;SDS011;65385;55.772;37.658;2024-01-10T05:51:51;7.20;;;4.32;;
76540;SDS011;65385;55.772;37.658;2024-01-10T05:52:51;4.25;;;3.88;;
76540;SDS011;65385;55.772;37.658;2024-01-10T05:53:53;9.20;;;5.18;;
76540;SDS011;65385;55.772;37.658;2024-01-10T05:54:54;7.90;;;4.97;;
76540;SDS011;65385;55.772;37.658;2024-01-10T05:55:55;10.13;;;4.97;;
76540;SDS011;65385;55.772;37.658;2024-01-10T05:56:55;4.13;;;3.72;;
76540;SDS011;65385;55.772;37.658;2024-01-10T05:57:56;8.02;;;5.13;;
76540;SDS011;65385;55.772;37.658;2024-01-10T05:58:56;5.90;;;4.32;;
76540;SDS011;65385;55.772;37.658;2024-01-10T05:59:57;9.32;;;4.57;;
76540;SDS011;65385;55.772;37.658;2024-01-10T06:00:58;9.35;;;5.75;;